createdAt,value
2018-09-28T00:02:28.348Z,10.83
2018-09-28T00:04:57.551Z,10.80
2018-09-28T00:07:26.750Z,10.89
2018-09-28T00:09:55.924Z,10.82
2018-09-28T00:12:25.187Z,10.82
2018-09-28T00:14:54.342Z,10.72
2018-09-28T00:17:23.582Z,10.78
2018-09-28T00:19:52.814Z,10.68
2018-09-28T00:22:22.060Z,10.70
2018-09-28T00:24:51.235Z,10.69
2018-09-28T00:27:20.512Z,10.67
2018-09-28T00:29:49.675Z,10.64
2018-09-28T00:32:18.933Z,10.60
2018-09-28T00:34:48.140Z,10.65
2018-09-28T00:37:17.363Z,10.59
2018-09-28T00:39:46.561Z,10.46
2018-09-28T00:42:15.825Z,10.43
2018-09-28T00:45:11.343Z,10.43
2018-09-28T00:47:40.884Z,10.48
2018-09-28T00:50:10.121Z,10.45
2018-09-28T00:52:39.377Z,10.45
2018-09-28T00:55:08.632Z,10.38
2018-09-28T00:57:37.847Z,10.36
2018-09-28T01:00:07.222Z,10.34
2018-09-28T01:02:36.439Z,10.28
2018-09-28T01:05:05.641Z,10.23
2018-09-28T01:07:34.834Z,10.21
2018-09-28T01:10:04.162Z,10.22
2018-09-28T01:12:33.400Z,10.19
2018-09-28T01:15:02.600Z,10.18
2018-09-28T01:17:31.897Z,10.28
2018-09-28T01:20:01.088Z,10.10
2018-09-28T01:22:30.285Z,9.99
2018-09-28T01:24:59.495Z,9.95
2018-09-28T01:27:28.752Z,9.94
2018-09-28T01:29:58.029Z,9.97
2018-09-28T01:32:27.378Z,9.81
2018-09-28T01:34:56.602Z,9.85
2018-09-28T01:37:25.817Z,9.98
2018-09-28T01:39:55.052Z,9.89
2018-09-28T01:42:24.327Z,9.86
2018-09-28T01:44:53.584Z,9.82
2018-09-28T01:47:22.847Z,9.90
2018-09-28T01:49:52.082Z,9.79
2018-09-28T01:52:21.283Z,9.72
2018-09-28T01:54:50.470Z,9.77
2018-09-28T01:57:19.671Z,9.64
2018-09-28T01:59:48.889Z,9.67
2018-09-28T02:02:18.084Z,9.69
2018-09-28T02:04:47.290Z,9.65
2018-09-28T02:07:16.538Z,9.64
2018-09-28T02:09:45.732Z,9.61
2018-09-28T02:12:15.157Z,9.61
2018-09-28T02:14:44.398Z,9.66
2018-09-28T02:17:14.207Z,9.59
2018-09-28T02:19:43.402Z,9.48
2018-09-28T02:22:13.225Z,9.46
2018-09-28T02:24:42.473Z,9.46
2018-09-28T02:27:12.140Z,9.44
2018-09-28T02:29:41.337Z,9.45
2018-09-28T02:32:11.463Z,9.31
2018-09-28T02:34:40.675Z,9.30
2018-09-28T02:37:09.883Z,9.33
2018-09-28T02:39:39.151Z,9.38
2018-09-28T02:42:11.553Z,9.54
2018-09-28T02:44:40.759Z,9.49
2018-09-28T02:47:09.945Z,9.45
2018-09-28T02:49:39.157Z,9.36
2018-09-28T02:52:08.667Z,9.35
2018-09-28T02:54:37.845Z,9.30
2018-09-28T02:57:07.059Z,9.23
2018-09-28T02:59:36.316Z,9.32
2018-09-28T03:02:05.645Z,9.30
2018-09-28T03:04:34.856Z,9.32
2018-09-28T03:07:04.108Z,9.29
2018-09-28T03:09:33.318Z,9.28
2018-09-28T03:12:02.553Z,9.21
2018-09-28T03:14:31.775Z,9.18
2018-09-28T03:17:01.061Z,9.17
2018-09-28T03:19:30.356Z,9.24
2018-09-28T03:21:59.583Z,9.17
2018-09-28T03:24:28.868Z,9.10
2018-09-28T03:26:58.069Z,9.07
2018-09-28T03:29:27.326Z,8.98
2018-09-28T03:31:56.582Z,8.94
2018-09-28T03:34:25.885Z,9.01
2018-09-28T03:36:55.199Z,8.92
2018-09-28T03:39:24.457Z,8.95
2018-09-28T03:41:53.685Z,8.90
2018-09-28T03:44:22.963Z,8.85
2018-09-28T03:46:52.242Z,9.03
2018-09-28T03:49:21.489Z,8.94
2018-09-28T03:51:50.736Z,8.90
2018-09-28T03:54:20.053Z,8.88
2018-09-28T03:56:49.323Z,8.94
2018-09-28T03:59:18.597Z,8.87
2018-09-28T04:01:47.874Z,8.82
2018-09-28T04:04:17.146Z,8.76
2018-09-28T04:06:46.414Z,8.67
2018-09-28T04:09:15.852Z,8.78
2018-09-28T04:11:45.176Z,8.77
2018-09-28T04:14:14.931Z,8.72
2018-09-28T04:16:44.183Z,8.65
2018-09-28T04:19:14.098Z,8.79
2018-09-28T04:21:47.772Z,8.63
2018-09-28T04:24:17.125Z,8.58
2018-09-28T04:26:46.372Z,8.56
2018-09-28T04:29:15.824Z,8.62
2018-09-28T04:31:45.198Z,8.54
2018-09-28T04:34:16.119Z,8.59
2018-09-28T04:36:45.446Z,8.52
2018-09-28T04:39:15.840Z,8.50
2018-09-28T04:41:45.082Z,8.51
2018-09-28T04:44:14.613Z,8.48
2018-09-28T04:46:43.879Z,8.43
2018-09-28T04:49:13.882Z,8.40
2018-09-28T04:51:43.158Z,8.46
2018-09-28T04:54:12.932Z,8.42
2018-09-28T04:56:42.312Z,8.33
2018-09-28T04:59:11.579Z,8.34
2018-09-28T05:01:41.119Z,8.33
2018-09-28T05:04:10.519Z,8.33
2018-09-28T05:06:39.938Z,8.32
2018-09-28T05:09:12.282Z,8.39
2018-09-28T05:11:41.490Z,8.37
2018-09-28T05:14:11.228Z,8.29
2018-09-28T05:16:40.842Z,8.32
2018-09-28T05:19:11.034Z,8.31
2018-09-28T05:21:40.339Z,8.25
2018-09-28T05:24:09.764Z,8.21
2018-09-28T05:26:39.024Z,8.19
2018-09-28T05:29:08.686Z,8.22
2018-09-28T05:31:37.942Z,8.26
2018-09-28T05:34:07.593Z,8.27
2018-09-28T05:36:36.841Z,8.30
2018-09-28T05:39:07.786Z,8.38
2018-09-28T05:41:37.067Z,8.47
2018-09-28T05:44:06.804Z,8.54
2018-09-28T05:46:36.082Z,8.52
2018-09-28T05:49:06.165Z,8.53
2018-09-28T05:51:35.493Z,8.60
2018-09-28T05:54:04.744Z,8.66
2018-09-28T05:56:33.968Z,8.80
2018-09-28T05:59:08.630Z,9.01
2018-09-28T06:01:43.088Z,9.75
2018-09-28T06:04:17.663Z,10.48
2018-09-28T06:06:47.021Z,11.44
2018-09-28T06:09:16.274Z,12.13
2018-09-28T06:11:45.540Z,12.97
2018-09-28T06:14:14.773Z,12.90
2018-09-28T06:16:44.069Z,12.56
2018-09-28T06:19:13.366Z,12.78
2018-09-28T06:21:42.658Z,14.14
2018-09-28T06:24:11.928Z,14.82
2018-09-28T06:26:41.159Z,15.08
2018-09-28T06:29:10.446Z,14.09
2018-09-28T06:31:39.722Z,14.89
2018-09-28T06:34:11.002Z,16.18
2018-09-28T06:36:40.335Z,17.15
2018-09-28T06:39:09.882Z,14.99
2018-09-28T06:41:39.180Z,14.01
2018-09-28T06:44:08.776Z,15.65
2018-09-28T06:46:38.096Z,16.57
2018-09-28T06:49:07.776Z,16.99
2018-09-28T06:51:37.042Z,17.70
2018-09-28T06:54:06.540Z,18.05
2018-09-28T06:56:35.819Z,18.86
2018-09-28T06:59:05.039Z,19.48
2018-09-28T07:01:34.351Z,18.20
2018-09-28T07:04:03.764Z,18.90
2018-09-28T07:06:33.065Z,19.94
2018-09-28T07:09:02.383Z,18.97
2018-09-28T07:26:35.987Z,17.72
2018-09-28T07:29:05.243Z,19.08
2018-09-28T07:31:34.604Z,19.92
2018-09-28T07:34:03.881Z,19.93
2018-09-28T07:36:33.241Z,19.21
2018-09-28T07:39:02.356Z,19.76
2018-09-28T07:41:31.618Z,20.51
2018-09-28T07:44:00.848Z,20.61
2018-09-28T07:46:30.140Z,20.92
2018-09-28T07:48:59.347Z,21.11
2018-09-28T07:51:28.706Z,21.38
2018-09-28T07:53:58.031Z,21.59
2018-09-28T07:56:27.444Z,19.04
2018-09-28T07:58:56.710Z,17.24
2018-09-28T08:01:26.008Z,18.94
2018-09-28T08:03:55.222Z,17.44
2018-09-28T08:06:24.478Z,16.43
2018-09-28T08:08:53.709Z,16.63
2018-09-28T08:11:22.972Z,17.85
2018-09-28T08:13:52.286Z,17.34
2018-09-28T08:16:21.553Z,18.93
2018-09-28T08:18:50.835Z,18.67
2018-09-28T08:21:20.124Z,18.43
2018-09-28T08:23:49.333Z,19.08
2018-09-28T08:26:18.671Z,19.88
2018-09-28T08:28:47.979Z,19.03
2018-09-28T08:31:17.249Z,18.08
2018-09-28T08:33:46.485Z,17.73
2018-09-28T08:36:15.864Z,17.32
2018-09-28T08:38:45.152Z,17.36
2018-09-28T08:41:14.361Z,17.78
2018-09-28T08:43:43.647Z,18.12
2018-09-28T08:46:12.827Z,16.88
2018-09-28T08:48:42.104Z,17.66
2018-09-28T08:51:11.422Z,17.69
2018-09-28T08:53:40.667Z,16.52
2018-09-28T08:56:10.223Z,15.45
2018-09-28T08:58:39.584Z,15.26
2018-09-28T09:01:09.190Z,14.83
2018-09-28T09:03:38.613Z,15.21
2018-09-28T09:06:08.286Z,15.70
2018-09-28T09:08:37.540Z,16.04
2018-09-28T09:11:07.025Z,16.25
2018-09-28T09:13:36.326Z,15.46
2018-09-28T09:16:05.567Z,16.06
2018-09-28T09:18:34.805Z,16.04
2018-09-28T09:21:04.094Z,16.31
2018-09-28T09:23:33.316Z,16.24
2018-09-28T09:26:02.753Z,15.88
2018-09-28T09:28:31.984Z,15.83
2018-09-28T09:31:01.264Z,16.25
2018-09-28T09:33:30.513Z,16.60
2018-09-28T09:35:59.785Z,16.65
2018-09-28T09:38:29.122Z,16.90
2018-09-28T09:40:58.383Z,17.16
2018-09-28T09:43:27.594Z,17.45
2018-09-28T09:45:56.860Z,17.22
2018-09-28T09:48:26.133Z,17.02
2018-09-28T09:50:55.374Z,17.03
2018-09-28T09:53:24.593Z,17.25
2018-09-28T09:55:53.878Z,17.39
2018-09-28T09:58:23.095Z,17.58
2018-09-28T10:00:58.575Z,17.58
2018-09-28T10:03:34.203Z,17.57
2018-09-28T10:06:04.879Z,17.79
2018-09-28T10:08:35.266Z,17.71
2018-09-28T10:11:04.598Z,17.81
2018-09-28T10:13:33.864Z,17.49
2018-09-28T10:16:03.179Z,17.97
2018-09-28T10:18:32.398Z,18.11
2018-09-28T10:21:01.658Z,17.91
2018-09-28T10:23:30.928Z,18.02
2018-09-28T10:26:00.266Z,18.34
2018-09-28T10:28:29.485Z,18.50
2018-09-28T10:30:58.724Z,18.15
2018-09-28T10:33:28.031Z,18.18
2018-09-28T10:35:57.273Z,18.13
2018-09-28T10:38:26.521Z,18.22
2018-09-28T10:40:55.926Z,18.35
2018-09-28T10:43:25.346Z,18.60
2018-09-28T10:45:54.564Z,18.57
2018-09-28T10:48:23.820Z,18.17
2018-09-28T10:50:53.360Z,18.34
2018-09-28T10:53:22.552Z,18.67
2018-09-28T10:55:51.829Z,18.73
2018-09-28T10:58:21.098Z,18.61
2018-09-28T11:00:50.456Z,18.81
2018-09-28T11:03:19.694Z,18.75
2018-09-28T11:05:48.959Z,18.99
2018-09-28T11:08:19.293Z,19.39
2018-09-28T11:10:48.585Z,19.51
2018-09-28T11:13:17.856Z,19.15
2018-09-28T11:15:47.174Z,19.35
2018-09-28T11:18:16.356Z,19.40
2018-09-28T11:20:45.615Z,18.91
2018-09-28T11:23:14.875Z,19.20
2018-09-28T11:25:44.119Z,19.13
2018-09-28T11:28:13.452Z,19.39
2018-09-28T11:30:42.675Z,19.63
2018-09-28T11:33:11.985Z,19.50
2018-09-28T11:35:41.152Z,19.55
2018-09-28T11:38:10.711Z,19.46
2018-09-28T11:40:40.005Z,19.75
2018-09-28T11:43:09.703Z,20.01
2018-09-28T11:45:38.918Z,19.74
2018-09-28T11:48:08.636Z,19.77
2018-09-28T11:50:37.892Z,19.70
2018-09-28T11:53:07.591Z,19.55
2018-09-28T11:55:36.816Z,19.53
2018-09-28T11:58:06.184Z,19.75
2018-09-28T12:00:35.461Z,19.65
2018-09-28T12:03:04.800Z,19.64
2018-09-28T12:05:34.677Z,19.45
2018-09-28T12:08:03.908Z,19.26
2018-09-28T12:10:33.255Z,19.14
2018-09-28T12:13:02.528Z,19.08
2018-09-28T12:15:31.810Z,18.82
2018-09-28T12:18:01.028Z,19.28
2018-09-28T12:20:30.294Z,19.36
2018-09-28T12:22:59.501Z,18.88
2018-09-28T12:25:28.772Z,18.69
2018-09-28T12:27:58.021Z,18.62
2018-09-28T12:30:27.353Z,18.31
2018-09-28T12:32:56.564Z,18.33
2018-09-28T12:35:25.832Z,18.41
2018-09-28T12:37:55.020Z,18.82
2018-09-28T12:40:24.309Z,18.85
2018-09-28T12:42:53.565Z,18.72
2018-09-28T12:45:22.879Z,18.65
2018-09-28T12:47:52.173Z,18.71
2018-09-28T12:50:21.490Z,18.44
2018-09-28T12:52:50.696Z,18.21
2018-09-28T12:55:19.991Z,17.82
2018-09-28T12:57:49.230Z,17.76
2018-09-28T13:00:18.619Z,17.70
2018-09-28T13:02:47.898Z,17.58
2018-09-28T13:05:17.115Z,17.55
2018-09-28T13:07:46.445Z,17.77
2018-09-28T13:10:15.679Z,17.61
2018-09-28T13:12:44.987Z,17.73
2018-09-28T13:15:14.534Z,17.59
2018-09-28T13:17:43.510Z,17.58
2018-09-28T13:20:12.823Z,17.25
2018-09-28T13:22:42.052Z,17.12
2018-09-28T13:25:12.543Z,16.97
2018-09-28T13:27:41.780Z,16.88
2018-09-28T13:30:12.010Z,16.60
2018-09-28T13:32:41.291Z,16.23
2018-09-28T13:35:11.461Z,15.91
2018-09-28T13:37:40.736Z,15.73
2018-09-28T13:40:11.694Z,15.50
2018-09-28T13:42:41.220Z,15.50
2018-09-28T13:45:11.593Z,15.39
2018-09-28T13:47:40.719Z,15.31
2018-09-28T13:50:11.239Z,15.21
2018-09-28T13:52:41.263Z,15.24
2018-09-28T13:55:11.559Z,14.97
2018-09-28T14:00:42.611Z,14.78
2018-09-28T14:03:11.841Z,14.82
2018-09-28T14:05:41.161Z,14.75
2018-09-28T14:08:10.725Z,14.61
2018-09-28T14:10:40.026Z,14.73
2018-09-28T14:13:09.829Z,14.74
2018-09-28T14:15:39.131Z,14.76
2018-09-28T14:18:08.856Z,14.78
2018-09-28T14:20:38.112Z,14.80
2018-09-28T14:23:08.768Z,14.79
2018-09-28T14:25:37.987Z,14.86
2018-09-28T14:28:10.215Z,14.79
2018-09-28T14:30:39.451Z,14.93
2018-09-28T14:33:09.112Z,15.02
2018-09-28T14:35:38.343Z,14.90
2018-09-28T14:38:08.464Z,14.90
2018-09-28T14:40:37.786Z,14.85
2018-09-28T14:43:07.025Z,14.80
2018-09-28T14:45:36.319Z,14.76
2018-09-28T14:48:05.622Z,14.59
2018-09-28T14:50:34.921Z,14.57
2018-09-28T14:53:04.169Z,14.58
2018-09-28T14:55:33.401Z,14.63
2018-09-28T14:58:02.643Z,14.69
2018-09-28T15:00:31.913Z,14.66
2018-09-28T15:03:01.075Z,14.64
2018-09-28T15:05:30.381Z,14.57
2018-09-28T15:07:59.615Z,14.48
2018-09-28T15:10:28.930Z,14.42
2018-09-28T15:12:58.136Z,14.32
2018-09-28T15:15:27.547Z,14.38
2018-09-28T15:17:56.927Z,14.32
2018-09-28T15:20:26.218Z,14.35
2018-09-28T15:22:55.524Z,14.21
2018-09-28T15:25:24.815Z,14.26
2018-09-28T15:27:54.053Z,14.31
2018-09-28T15:30:23.324Z,14.22
2018-09-28T15:32:52.511Z,14.13
2018-09-28T15:35:21.826Z,14.22
2018-09-28T15:37:51.020Z,14.25
2018-09-28T15:40:20.271Z,14.28
2018-09-28T15:42:49.500Z,14.28
2018-09-28T15:45:18.771Z,14.18
2018-09-28T15:47:48.072Z,14.14
2018-09-28T15:50:18.379Z,14.15
2018-09-28T15:52:47.697Z,14.16
2018-09-28T15:55:16.980Z,14.17
2018-09-28T15:57:46.196Z,14.21
2018-09-28T16:00:15.500Z,14.12
2018-09-28T16:02:44.789Z,14.16
2018-09-28T16:05:14.073Z,14.21
2018-09-28T16:07:43.288Z,14.19
2018-09-28T16:10:12.947Z,14.16
2018-09-28T16:12:45.008Z,14.20
2018-09-28T16:15:15.273Z,14.24
2018-09-28T16:17:44.773Z,14.35
2018-09-28T16:20:14.264Z,14.24
2018-09-28T16:22:43.525Z,14.22
2018-09-28T16:25:13.539Z,14.28
2018-09-28T16:27:42.769Z,14.37
2018-09-28T16:30:13.498Z,14.39
2018-09-28T16:32:42.939Z,14.23
2018-09-28T16:35:13.679Z,14.32
2018-09-28T16:37:42.917Z,14.24
2018-09-28T16:40:12.682Z,14.27
2018-09-28T16:42:41.927Z,14.16
2018-09-28T16:45:12.638Z,14.10
2018-09-28T16:47:42.192Z,14.22
2018-09-28T16:50:13.323Z,14.16
2018-09-28T16:52:42.621Z,14.07
2018-09-28T16:55:13.760Z,14.06
2018-09-28T16:57:43.028Z,14.09
2018-09-28T17:00:12.915Z,14.09
2018-09-28T17:02:42.144Z,14.09
2018-09-28T17:05:12.384Z,14.08
2018-09-28T17:07:41.634Z,14.10
2018-09-28T17:10:11.456Z,14.06
2018-09-28T17:12:40.881Z,13.92
2018-09-28T17:15:10.851Z,13.94
2018-09-28T17:17:40.290Z,13.96
2018-09-28T17:20:11.410Z,13.88
2018-09-28T17:22:40.970Z,13.90
2018-09-28T17:25:11.625Z,13.80
2018-09-28T17:27:40.991Z,13.85
2018-09-28T17:30:10.739Z,13.84
2018-09-28T17:32:40.330Z,13.77
2018-09-28T17:35:10.052Z,13.79
2018-09-28T17:37:39.409Z,13.76
2018-09-28T17:40:09.958Z,13.80
2018-09-28T17:42:39.568Z,13.79
2018-09-28T17:45:09.091Z,13.76
2018-09-28T17:47:38.323Z,13.68
2018-09-28T17:50:07.606Z,13.76
2018-09-28T17:52:36.831Z,13.84
2018-09-28T17:55:06.162Z,13.84
2018-09-28T17:57:35.384Z,13.77
2018-09-28T18:00:04.700Z,13.76
2018-09-28T18:02:33.968Z,13.80
2018-09-28T18:05:03.206Z,13.77
2018-09-28T18:07:32.451Z,13.73
2018-09-28T18:10:01.850Z,13.73
2018-09-28T18:12:31.063Z,13.63
2018-09-28T18:15:00.296Z,13.57
2018-09-28T18:17:29.524Z,13.48
2018-09-28T18:19:58.889Z,13.47
2018-09-28T18:22:28.237Z,13.46
2018-09-28T18:24:57.456Z,13.39
2018-09-28T18:27:26.722Z,13.37
2018-09-28T18:29:55.992Z,13.54
2018-09-28T18:32:25.260Z,13.43
2018-09-28T18:34:57.261Z,13.33
2018-09-28T18:37:26.589Z,13.36
2018-09-28T18:39:55.832Z,13.40
2018-09-28T18:42:25.082Z,13.23
2018-09-28T18:44:54.311Z,13.15
2018-09-28T18:47:23.557Z,13.05
2018-09-28T18:49:52.750Z,13.04
2018-09-28T18:52:22.020Z,13.03
2018-09-28T18:54:51.209Z,12.87
2018-09-28T18:57:20.413Z,12.91
2018-09-28T18:59:49.600Z,12.81
2018-09-28T19:02:19.260Z,12.71
2018-09-28T19:04:48.893Z,12.62
2018-09-28T19:07:18.573Z,12.56
2018-09-28T19:09:48.113Z,12.48
2018-09-28T19:12:17.397Z,12.43
2018-09-28T19:14:46.600Z,12.47
2018-09-28T19:17:16.051Z,12.25
2018-09-28T19:19:46.307Z,12.13
2018-09-28T19:22:17.213Z,12.08
2018-09-28T19:24:47.668Z,12.03
2018-09-28T19:27:19.331Z,11.96
2018-09-28T19:29:48.967Z,11.95
2018-09-28T19:32:18.932Z,11.88
2018-09-28T19:34:48.268Z,11.84
2018-09-28T19:37:17.790Z,11.75
2018-09-28T19:39:48.341Z,11.73
2018-09-28T19:42:17.881Z,11.75
2018-09-28T19:44:47.361Z,11.71
2018-09-28T19:47:16.840Z,11.71
2018-09-28T19:49:46.187Z,11.81
2018-09-28T19:52:16.123Z,11.62
2018-09-28T19:54:45.354Z,11.59
2018-09-28T19:57:15.317Z,11.64
2018-09-28T19:59:44.670Z,11.62
2018-09-28T20:02:15.104Z,11.56
2018-09-28T20:04:44.342Z,11.42
2018-09-28T20:07:14.084Z,11.46
2018-09-28T20:09:43.399Z,11.42
2018-09-28T20:12:12.738Z,11.35
2018-09-28T20:14:42.261Z,11.27
2018-09-28T20:17:11.735Z,11.11
2018-09-28T20:19:41.143Z,11.10
2018-09-28T20:22:13.295Z,10.96
2018-09-28T20:24:42.575Z,10.94
2018-09-28T20:27:12.724Z,10.87
2018-09-28T20:29:41.954Z,10.89
2018-09-28T20:32:11.756Z,10.88
2018-09-28T20:34:41.068Z,10.83
2018-09-28T20:37:10.605Z,10.82
2018-09-28T20:39:40.107Z,10.69
2018-09-28T20:42:09.592Z,10.76
2018-09-28T20:44:39.052Z,10.69
2018-09-28T20:47:08.313Z,10.73
2018-09-28T20:49:37.696Z,10.68
2018-09-28T20:52:07.166Z,10.58
2018-09-28T20:54:36.486Z,10.65
2018-09-28T20:57:05.831Z,10.73
2018-09-28T20:59:35.007Z,10.66
2018-09-28T21:02:04.348Z,10.72
2018-09-28T21:04:33.590Z,10.75
2018-09-28T21:07:02.984Z,10.71
2018-09-28T21:09:32.667Z,10.77
2018-09-28T21:12:02.055Z,10.86
2018-09-28T21:14:31.308Z,10.93
2018-09-28T21:17:00.544Z,10.98
2018-09-28T21:19:29.782Z,10.88
2018-09-28T21:21:59.955Z,10.93
2018-09-28T21:24:29.163Z,10.84
2018-09-28T21:26:58.913Z,10.78
2018-09-28T21:29:29.207Z,10.74
2018-09-28T21:31:58.415Z,10.68
2018-09-28T21:34:27.622Z,10.67
2018-09-28T21:36:56.965Z,10.68
2018-09-28T21:39:26.357Z,10.69
2018-09-28T21:41:57.055Z,10.62
2018-09-28T21:44:26.429Z,10.55
2018-09-28T21:46:55.695Z,10.50
2018-09-28T21:49:24.907Z,10.63
2018-09-28T21:51:55.384Z,10.65
2018-09-28T21:54:24.624Z,10.43
2018-09-28T21:56:53.844Z,10.46
2018-09-28T21:59:23.654Z,10.40
2018-09-28T22:01:53.023Z,10.43
2018-09-28T22:04:22.539Z,10.36
2018-09-28T22:06:51.780Z,10.35
2018-09-28T22:09:21.121Z,10.25
2018-09-28T22:11:50.431Z,10.13
2018-09-28T22:14:19.933Z,10.10
2018-09-28T22:16:49.776Z,10.23
2018-09-28T22:19:18.976Z,10.22
2018-09-28T22:21:48.239Z,10.11
2018-09-28T22:24:17.464Z,10.05
2018-09-28T22:26:46.889Z,10.02
2018-09-28T22:29:16.838Z,9.94
2018-09-28T22:31:46.600Z,9.88
2018-09-28T22:34:15.912Z,9.81
2018-09-28T22:36:45.142Z,9.81
2018-09-28T22:39:14.916Z,9.77
2018-09-28T22:41:45.278Z,9.74
2018-09-28T22:44:15.023Z,9.67
2018-09-28T22:46:44.244Z,9.58
2018-09-28T22:49:14.375Z,9.65
2018-09-28T22:51:43.731Z,9.50
2018-09-28T22:54:13.631Z,9.45
2018-09-28T22:56:43.996Z,9.21
2018-09-28T22:59:13.865Z,9.15
2018-09-28T23:01:45.916Z,9.12
2018-09-28T23:04:15.477Z,9.16
2018-09-28T23:06:44.738Z,9.12
2018-09-28T23:09:15.139Z,9.15
2018-09-28T23:11:44.388Z,9.14
2018-09-28T23:14:14.105Z,9.00
2018-09-28T23:16:43.354Z,8.99
2018-09-28T23:19:13.139Z,9.02
2018-09-28T23:21:42.426Z,9.02
2018-09-28T23:24:11.553Z,8.91
2018-09-28T23:26:40.898Z,8.82
2018-09-28T23:29:10.171Z,8.81
2018-09-28T23:31:39.471Z,8.82
2018-09-28T23:34:08.671Z,8.79
2018-09-28T23:36:37.956Z,8.85
2018-09-28T23:39:08.688Z,8.79
2018-09-28T23:41:38.248Z,8.82
2018-09-28T23:44:07.887Z,8.83
2018-09-28T23:46:37.276Z,8.74
2018-09-28T23:49:06.590Z,8.67
2018-09-28T23:51:35.843Z,8.70
2018-09-28T23:54:05.103Z,8.57
2018-09-28T23:56:34.433Z,8.67
2018-09-28T23:59:03.657Z,8.61
